createdAt,value
2016-11-28T00:00:10.161Z,386
2016-11-28T00:01:10.358Z,387
2016-11-28T00:02:10.613Z,385
2016-11-28T00:03:10.806Z,384
2016-11-28T00:04:10.941Z,384
2016-11-28T00:05:11.088Z,385
2016-11-28T00:06:11.291Z,385
2016-11-28T00:07:11.477Z,460
2016-11-28T00:08:11.592Z,387
2016-11-28T00:09:11.711Z,385
2016-11-28T00:10:11.923Z,385
2016-11-28T00:11:12.029Z,384
2016-11-28T00:12:12.272Z,379
2016-11-28T00:13:12.430Z,378
2016-11-28T00:14:12.720Z,378
2016-11-28T00:15:12.809Z,378
2016-11-28T00:16:13.016Z,385
2016-11-28T00:17:13.107Z,383
2016-11-28T00:18:13.190Z,380
2016-11-28T00:19:13.317Z,381
2016-11-28T00:20:13.445Z,382
2016-11-28T00:21:13.579Z,381
2016-11-28T00:22:13.692Z,382
2016-11-28T00:23:13.776Z,382
2016-11-28T00:24:13.978Z,382
2016-11-28T00:25:14.166Z,504
2016-11-28T00:26:14.271Z,381
2016-11-28T00:27:14.355Z,380
2016-11-28T00:28:14.449Z,381
2016-11-28T00:29:14.589Z,382
2016-11-28T00:30:14.719Z,381
2016-11-28T00:31:14.857Z,378
2016-11-28T00:32:14.983Z,378
2016-11-28T00:33:15.104Z,378
2016-11-28T00:34:15.271Z,380
2016-11-28T00:35:15.470Z,382
2016-11-28T00:36:15.579Z,383
2016-11-28T00:37:15.772Z,383
2016-11-28T00:38:15.865Z,384
2016-11-28T00:39:16.033Z,381
2016-11-28T00:40:16.134Z,483
2016-11-28T00:41:16.321Z,485
2016-11-28T00:42:16.432Z,486
2016-11-28T00:43:16.568Z,487
2016-11-28T00:44:16.687Z,485
2016-11-28T00:45:16.799Z,484
2016-11-28T00:46:16.883Z,479
2016-11-28T00:47:17.022Z,484
2016-11-28T00:48:17.167Z,383
2016-11-28T00:49:17.238Z,382
2016-11-28T00:50:17.322Z,380
2016-11-28T00:51:17.466Z,397
2016-11-28T00:52:17.659Z,391
2016-11-28T00:53:17.764Z,392
2016-11-28T00:54:17.939Z,421
2016-11-28T00:55:18.016Z,385
2016-11-28T00:56:18.159Z,384
2016-11-28T00:57:18.255Z,385
2016-11-28T00:58:18.414Z,386
2016-11-28T00:59:18.515Z,402
2016-11-28T01:00:18.639Z,441
2016-11-28T01:01:18.733Z,427
2016-11-28T01:02:18.924Z,384
2016-11-28T01:03:19.053Z,383
2016-11-28T01:04:19.157Z,385
2016-11-28T01:05:19.264Z,382
2016-11-28T01:06:19.396Z,384
2016-11-28T01:07:19.495Z,381
2016-11-28T01:08:19.660Z,380
2016-11-28T01:09:19.782Z,379
2016-11-28T01:10:19.907Z,409
2016-11-28T01:11:20.030Z,395
2016-11-28T01:12:20.168Z,390
2016-11-28T01:13:20.336Z,386
2016-11-28T01:14:20.474Z,385
2016-11-28T01:15:20.607Z,386
2016-11-28T01:16:20.738Z,385
2016-11-28T01:17:20.784Z,384
2016-11-28T01:18:20.934Z,384
2016-11-28T01:19:21.038Z,383
2016-11-28T01:20:21.144Z,385
2016-11-28T01:21:21.268Z,384
2016-11-28T01:22:21.366Z,384
2016-11-28T01:23:21.542Z,384
2016-11-28T01:24:21.654Z,383
2016-11-28T01:25:21.729Z,385
2016-11-28T01:26:21.863Z,384
2016-11-28T01:27:21.944Z,384
2016-11-28T01:28:22.090Z,383
2016-11-28T01:29:22.283Z,383
2016-11-28T01:30:22.421Z,382
2016-11-28T01:31:22.499Z,382
2016-11-28T01:32:22.595Z,380
2016-11-28T01:33:22.757Z,385
2016-11-28T01:34:22.898Z,383
2016-11-28T01:35:23.023Z,384
2016-11-28T01:36:23.135Z,383
2016-11-28T01:37:23.308Z,382
2016-11-28T01:38:23.405Z,383
2016-11-28T01:39:23.553Z,383
2016-11-28T01:40:23.715Z,383
2016-11-28T01:41:23.878Z,382
2016-11-28T01:42:23.978Z,382
2016-11-28T01:43:24.267Z,382
2016-11-28T01:44:24.483Z,384
2016-11-28T01:45:24.607Z,453
2016-11-28T01:46:24.778Z,467
2016-11-28T01:47:24.920Z,388
2016-11-28T01:48:25.062Z,385
2016-11-28T01:49:25.131Z,384
2016-11-28T01:50:25.262Z,384
2016-11-28T01:51:25.383Z,384
2016-11-28T01:52:25.645Z,384
2016-11-28T01:53:25.789Z,384
2016-11-28T01:54:25.876Z,383
2016-11-28T01:55:26.041Z,382
2016-11-28T01:56:26.117Z,382
2016-11-28T01:57:26.270Z,382
2016-11-28T01:58:26.364Z,382
2016-11-28T01:59:26.489Z,381
2016-11-28T02:00:26.613Z,381
2016-11-28T02:01:26.804Z,382
2016-11-28T02:02:26.993Z,381
2016-11-28T02:03:27.156Z,381
2016-11-28T02:04:27.305Z,382
2016-11-28T02:05:27.400Z,382
2016-11-28T02:06:27.626Z,381
2016-11-28T02:07:27.731Z,381
2016-11-28T02:08:27.949Z,381
2016-11-28T02:09:28.162Z,382
2016-11-28T02:10:28.330Z,380
2016-11-28T02:11:28.434Z,380
2016-11-28T02:12:28.627Z,393
2016-11-28T02:13:28.925Z,391
2016-11-28T02:14:28.912Z,390
2016-11-28T02:15:29.050Z,396
2016-11-28T02:16:29.216Z,441
2016-11-28T02:17:29.347Z,517
2016-11-28T02:18:29.554Z,617
2016-11-28T02:19:29.777Z,623
2016-11-28T02:20:29.878Z,627
2016-11-28T02:21:30.063Z,630
2016-11-28T02:22:30.242Z,634
2016-11-28T02:23:30.328Z,636
2016-11-28T02:24:30.478Z,636
2016-11-28T02:25:30.581Z,634
2016-11-28T02:26:30.713Z,634
2016-11-28T02:27:30.925Z,642
2016-11-28T02:28:30.988Z,639
2016-11-28T02:29:31.062Z,632
2016-11-28T02:30:31.254Z,633
2016-11-28T02:31:31.280Z,631
2016-11-28T02:32:31.428Z,633
2016-11-28T02:33:31.502Z,633
2016-11-28T02:34:31.653Z,630
2016-11-28T02:35:31.737Z,531
2016-11-28T02:36:31.844Z,530
2016-11-28T02:37:32.097Z,529
2016-11-28T02:38:32.207Z,531
2016-11-28T02:39:32.337Z,529
2016-11-28T02:40:32.509Z,533
2016-11-28T02:41:32.610Z,532
2016-11-28T02:42:32.753Z,531
2016-11-28T02:43:32.878Z,531
2016-11-28T02:44:33.108Z,531
2016-11-28T02:45:33.163Z,528
2016-11-28T02:46:33.286Z,529
2016-11-28T02:47:33.367Z,529
2016-11-28T02:48:33.509Z,529
2016-11-28T02:49:33.635Z,530
2016-11-28T02:50:33.718Z,531
2016-11-28T02:51:33.815Z,533
2016-11-28T02:52:33.936Z,536
2016-11-28T02:53:34.153Z,536
2016-11-28T02:54:34.290Z,535
2016-11-28T02:55:34.425Z,534
2016-11-28T02:56:34.574Z,534
2016-11-28T02:57:34.630Z,533
2016-11-28T02:58:34.840Z,533
2016-11-28T02:59:34.932Z,538
2016-11-28T03:00:35.223Z,534
2016-11-28T03:01:35.348Z,534
2016-11-28T03:02:35.363Z,533
2016-11-28T03:03:35.549Z,533
2016-11-28T03:04:35.664Z,533
2016-11-28T03:05:35.767Z,532
2016-11-28T03:06:35.849Z,532
2016-11-28T03:07:35.948Z,532
2016-11-28T03:10:02.780Z,530
2016-11-28T03:11:02.882Z,531
2016-11-28T03:12:03.071Z,532
2016-11-28T03:13:03.178Z,531
2016-11-28T03:14:03.357Z,532
2016-11-28T03:15:03.430Z,534
2016-11-28T03:16:03.489Z,533
2016-11-28T03:17:03.765Z,532
2016-11-28T03:18:03.865Z,532
2016-11-28T03:19:03.937Z,532
2016-11-28T03:20:04.042Z,531
2016-11-28T03:21:04.115Z,530
2016-11-28T03:22:04.247Z,531
2016-11-28T03:23:04.374Z,531
2016-11-28T03:24:04.527Z,531
2016-11-28T03:25:04.597Z,530
2016-11-28T03:26:04.775Z,530
2016-11-28T03:27:04.878Z,530
2016-11-28T03:28:04.992Z,531
2016-11-28T03:29:05.117Z,531
2016-11-28T03:30:05.253Z,530
2016-11-28T03:31:05.369Z,530
2016-11-28T03:32:05.733Z,530
2016-11-28T03:33:05.828Z,540
2016-11-28T03:34:05.932Z,539
2016-11-28T03:35:06.006Z,541
2016-11-28T03:36:06.181Z,540
2016-11-28T03:37:06.352Z,540
2016-11-28T03:38:06.504Z,541
2016-11-28T03:39:06.615Z,542
2016-11-28T03:40:06.759Z,543
2016-11-28T03:41:06.878Z,542
2016-11-28T03:42:07.035Z,545
2016-11-28T03:43:07.168Z,553
2016-11-28T03:44:07.310Z,558
2016-11-28T03:45:07.440Z,517
2016-11-28T03:46:07.562Z,502
2016-11-28T03:47:07.709Z,550
2016-11-28T03:48:07.818Z,539
2016-11-28T03:49:07.984Z,559
2016-11-28T03:50:08.119Z,534
2016-11-28T03:51:08.193Z,521
2016-11-28T03:52:08.248Z,481
2016-11-28T03:53:08.361Z,485
2016-11-28T03:54:08.460Z,380
2016-11-28T03:55:08.597Z,365
2016-11-28T03:56:08.664Z,358
2016-11-28T03:57:08.758Z,362
2016-11-28T03:58:08.863Z,365
2016-11-28T03:59:09.017Z,430
2016-11-28T04:00:09.094Z,468
2016-11-28T04:01:09.162Z,399
2016-11-28T04:02:09.296Z,375
2016-11-28T04:03:09.406Z,305
2016-11-28T04:04:09.561Z,301
2016-11-28T04:05:09.666Z,298
2016-11-28T04:06:09.831Z,297
2016-11-28T04:07:09.917Z,296
2016-11-28T04:08:10.117Z,296
2016-11-28T04:09:10.211Z,295
2016-11-28T04:10:10.365Z,295
2016-11-28T04:11:10.512Z,294
2016-11-28T04:12:10.870Z,294
2016-11-28T04:13:11.009Z,294
2016-11-28T04:14:11.127Z,293
2016-11-28T04:15:11.177Z,294
2016-11-28T04:16:11.287Z,293
2016-11-28T04:17:11.454Z,293
2016-11-28T04:18:11.567Z,293
2016-11-28T04:19:11.669Z,293
2016-11-28T04:20:11.829Z,293
2016-11-28T04:21:11.956Z,293
2016-11-28T04:22:12.105Z,293
2016-11-28T04:23:12.284Z,293
2016-11-28T04:24:12.439Z,293
2016-11-28T04:25:12.652Z,292
2016-11-28T04:26:12.688Z,293
2016-11-28T04:27:12.791Z,293
2016-11-28T04:28:13.017Z,293
2016-11-28T04:29:13.210Z,292
2016-11-28T04:30:13.380Z,293
2016-11-28T04:31:13.591Z,293
2016-11-28T04:32:13.673Z,292
2016-11-28T04:33:13.882Z,292
2016-11-28T04:34:14.021Z,292
2016-11-28T04:35:14.194Z,292
2016-11-28T04:36:14.327Z,292
2016-11-28T04:37:14.425Z,292
2016-11-28T04:38:14.571Z,292
2016-11-28T04:39:15.655Z,292
2016-11-28T04:40:15.825Z,292
2016-11-28T04:41:16.076Z,292
2016-11-28T04:42:16.182Z,292
2016-11-28T04:43:16.432Z,292
2016-11-28T04:44:16.572Z,292
2016-11-28T04:45:16.766Z,292
2016-11-28T04:46:16.866Z,292
2016-11-28T04:47:17.065Z,293
2016-11-28T04:48:17.254Z,293
2016-11-28T04:49:17.322Z,293
2016-11-28T04:50:17.440Z,293
2016-11-28T04:51:17.565Z,293
2016-11-28T04:52:17.826Z,293
2016-11-28T04:53:19.015Z,293
2016-11-28T04:54:18.147Z,293
2016-11-28T04:55:18.347Z,293
2016-11-28T04:56:18.515Z,293
2016-11-28T04:57:18.597Z,293
2016-11-28T04:58:18.815Z,293
2016-11-28T04:59:19.122Z,293
2016-11-28T05:00:19.291Z,293
2016-11-28T05:01:19.358Z,293
2016-11-28T05:02:19.612Z,293
2016-11-28T05:03:19.649Z,294
2016-11-28T05:04:19.879Z,294
2016-11-28T05:05:20.040Z,293
2016-11-28T05:06:20.212Z,294
2016-11-28T05:07:20.502Z,294
2016-11-28T05:08:20.579Z,294
2016-11-28T05:09:20.920Z,294
2016-11-28T05:10:20.991Z,294
2016-11-28T05:11:21.158Z,294
2016-11-28T05:12:21.191Z,294
2016-11-28T05:13:21.322Z,294
2016-11-28T05:14:21.445Z,294
2016-11-28T05:15:21.665Z,294
2016-11-28T05:16:21.746Z,294
2016-11-28T05:17:21.818Z,294
2016-11-28T05:18:21.932Z,294
2016-11-28T05:19:22.127Z,293
2016-11-28T05:20:22.197Z,294
2016-11-28T05:21:22.385Z,294
2016-11-28T05:22:22.517Z,294
2016-11-28T05:23:22.647Z,294
2016-11-28T05:24:22.762Z,294
2016-11-28T05:25:22.865Z,294
2016-11-28T05:26:23.082Z,294
2016-11-28T05:27:23.152Z,294
2016-11-28T05:28:23.286Z,294
2016-11-28T05:29:23.373Z,294
2016-11-28T05:30:23.550Z,294
2016-11-28T05:31:23.678Z,295
2016-11-28T05:32:23.835Z,294
2016-11-28T05:33:23.944Z,295
2016-11-28T05:34:24.133Z,295
2016-11-28T05:35:24.380Z,295
2016-11-28T05:36:24.548Z,294
2016-11-28T05:37:24.648Z,293
2016-11-28T05:38:24.838Z,294
2016-11-28T05:39:25.036Z,294
2016-11-28T05:40:25.163Z,293
2016-11-28T05:41:25.326Z,294
2016-11-28T05:42:25.437Z,294
2016-11-28T05:43:25.619Z,293
2016-11-28T05:44:25.786Z,293
2016-11-28T05:45:25.929Z,294
2016-11-28T05:46:26.146Z,294
2016-11-28T05:47:26.311Z,293
2016-11-28T05:48:26.474Z,293
2016-11-28T05:49:26.599Z,294
2016-11-28T05:50:26.673Z,294
2016-11-28T05:51:26.810Z,293
2016-11-28T05:52:26.968Z,294
2016-11-28T05:53:27.047Z,294
2016-11-28T05:54:27.292Z,294
2016-11-28T05:55:27.391Z,294
2016-11-28T05:56:27.440Z,294
2016-11-28T05:57:27.585Z,294
2016-11-28T05:58:27.784Z,294
2016-11-28T05:59:27.951Z,294
2016-11-28T06:00:28.139Z,293
2016-11-28T06:01:28.292Z,293
2016-11-28T06:02:28.586Z,294
2016-11-28T06:03:28.811Z,293
2016-11-28T06:05:55.653Z,292
2016-11-28T06:06:55.835Z,293
2016-11-28T06:07:55.915Z,293
2016-11-28T06:08:56.131Z,293
2016-11-28T06:09:56.360Z,293
2016-11-28T06:10:56.520Z,293
2016-11-28T06:11:56.597Z,293
2016-11-28T06:12:57.027Z,293
2016-11-28T06:13:57.193Z,293
2016-11-28T06:14:57.411Z,293
2016-11-28T06:15:57.606Z,293
2016-11-28T06:16:57.664Z,293
2016-11-28T06:17:57.770Z,293
2016-11-28T06:18:57.870Z,293
2016-11-28T06:19:57.953Z,293
2016-11-28T06:20:58.071Z,293
2016-11-28T06:21:58.146Z,293
2016-11-28T06:22:58.264Z,293
2016-11-28T06:23:58.561Z,293
2016-11-28T06:24:58.729Z,292
2016-11-28T06:25:58.953Z,293
2016-11-28T06:26:59.223Z,293
2016-11-28T06:27:59.305Z,292
2016-11-28T06:28:59.466Z,293
2016-11-28T06:29:59.590Z,293
2016-11-28T06:30:59.794Z,292
2016-11-28T06:31:59.974Z,292
2016-11-28T06:33:00.115Z,293
2016-11-28T06:34:00.507Z,292
2016-11-28T06:35:00.673Z,293
2016-11-28T06:36:00.851Z,292
2016-11-28T06:37:01.054Z,293
2016-11-28T06:38:01.169Z,293
2016-11-28T06:39:01.300Z,293
2016-11-28T06:40:01.577Z,292
2016-11-28T06:41:01.673Z,292
2016-11-28T06:42:01.841Z,292
2016-11-28T06:43:01.991Z,292
2016-11-28T06:44:02.122Z,293
2016-11-28T06:45:02.291Z,293
2016-11-28T06:46:02.416Z,293
2016-11-28T06:47:02.578Z,293
2016-11-28T06:48:02.725Z,293
2016-11-28T06:49:02.838Z,293
2016-11-28T06:50:03.081Z,292
2016-11-28T06:51:03.300Z,293
2016-11-28T06:52:03.449Z,292
2016-11-28T06:53:03.657Z,292
2016-11-28T06:54:03.890Z,293
2016-11-28T06:55:03.980Z,292
2016-11-28T06:56:04.088Z,293
2016-11-28T06:57:04.156Z,292
2016-11-28T06:58:04.348Z,293
2016-11-28T06:59:04.448Z,292
2016-11-28T07:00:04.600Z,293
2016-11-28T07:01:04.774Z,292
2016-11-28T07:02:04.852Z,293
2016-11-28T07:03:04.960Z,293
2016-11-28T07:04:05.056Z,293
2016-11-28T07:05:05.179Z,292
2016-11-28T07:06:05.296Z,292
2016-11-28T07:07:05.470Z,292
2016-11-28T07:08:05.703Z,293
2016-11-28T07:09:05.885Z,292
2016-11-28T07:10:06.067Z,292
2016-11-28T07:11:06.164Z,292
2016-11-28T07:12:06.338Z,292
2016-11-28T07:13:06.559Z,292
2016-11-28T07:14:06.726Z,292
2016-11-28T07:15:06.874Z,292
2016-11-28T07:16:06.972Z,292
2016-11-28T07:17:07.183Z,292
2016-11-28T07:18:07.500Z,292
2016-11-28T07:19:07.755Z,292
2016-11-28T07:20:07.815Z,292
2016-11-28T07:21:08.015Z,292
2016-11-28T07:22:08.180Z,292
2016-11-28T07:23:08.313Z,292
2016-11-28T07:24:08.466Z,292
2016-11-28T07:25:08.707Z,292
2016-11-28T07:26:08.892Z,291
2016-11-28T07:27:09.279Z,292
2016-11-28T07:28:09.584Z,292
2016-11-28T07:29:09.797Z,292
2016-11-28T07:30:10.010Z,291
2016-11-28T07:31:10.092Z,292
2016-11-28T07:32:10.359Z,291
2016-11-28T07:33:10.470Z,292
2016-11-28T07:34:10.640Z,291
2016-11-28T07:35:10.737Z,292
2016-11-28T07:36:10.890Z,292
2016-11-28T07:37:11.072Z,292
2016-11-28T07:38:11.269Z,291
2016-11-28T07:39:11.410Z,292
2016-11-28T07:40:11.556Z,292
2016-11-28T07:41:11.675Z,292
2016-11-28T07:42:11.788Z,291
2016-11-28T07:43:11.926Z,292
2016-11-28T07:44:12.063Z,292
2016-11-28T07:45:12.181Z,292
2016-11-28T07:46:12.256Z,292
2016-11-28T07:47:12.487Z,292
2016-11-28T07:48:12.685Z,292
2016-11-28T07:49:12.932Z,292
2016-11-28T07:50:12.965Z,292
2016-11-28T07:51:13.064Z,292
2016-11-28T07:52:13.267Z,292
2016-11-28T07:53:13.454Z,292
2016-11-28T07:54:13.632Z,292
2016-11-28T07:55:13.827Z,293
2016-11-28T07:56:13.964Z,292
2016-11-28T07:57:14.234Z,293
2016-11-28T07:58:14.351Z,293
2016-11-28T07:59:14.391Z,293
2016-11-28T08:00:14.635Z,294
2016-11-28T08:01:14.730Z,294
2016-11-28T08:02:14.880Z,294
2016-11-28T08:03:15.123Z,294
2016-11-28T08:04:15.268Z,294
2016-11-28T08:05:15.393Z,294
2016-11-28T08:06:15.552Z,294
2016-11-28T08:07:15.742Z,296
2016-11-28T08:08:15.991Z,296
2016-11-28T08:09:16.222Z,297
2016-11-28T08:10:16.258Z,296
2016-11-28T08:11:16.582Z,298
2016-11-28T08:12:16.823Z,297
2016-11-28T08:13:17.070Z,298
2016-11-28T08:14:17.231Z,297
2016-11-28T08:15:17.466Z,297
2016-11-28T08:16:17.690Z,295
2016-11-28T08:17:17.941Z,296
2016-11-28T08:18:18.048Z,295
2016-11-28T08:19:18.273Z,295
2016-11-28T08:20:18.625Z,296
2016-11-28T08:21:18.706Z,296
2016-11-28T08:22:18.847Z,297
2016-11-28T08:23:18.945Z,296
2016-11-28T08:24:19.094Z,296
2016-11-28T08:25:19.200Z,298
2016-11-28T08:26:19.392Z,298
2016-11-28T08:27:19.594Z,300
2016-11-28T08:28:19.795Z,301
2016-11-28T08:29:19.919Z,301
2016-11-28T08:30:20.028Z,303
2016-11-28T08:31:20.202Z,302
2016-11-28T08:32:20.388Z,303
2016-11-28T08:33:20.521Z,333
2016-11-28T08:34:20.729Z,451
2016-11-28T08:35:20.835Z,492
2016-11-28T08:36:21.005Z,544
2016-11-28T08:37:21.112Z,565
2016-11-28T08:38:21.434Z,570
2016-11-28T08:39:21.731Z,569
2016-11-28T08:40:21.887Z,586
2016-11-28T08:41:22.091Z,588
2016-11-28T08:42:22.259Z,567
2016-11-28T08:43:22.464Z,549
2016-11-28T08:44:22.666Z,540
2016-11-28T08:45:22.870Z,526
2016-11-28T08:46:23.041Z,514
2016-11-28T08:47:23.192Z,501
2016-11-28T08:48:23.357Z,487
2016-11-28T08:49:23.643Z,479
2016-11-28T08:50:23.705Z,495
2016-11-28T08:51:23.836Z,519
2016-11-28T08:52:24.007Z,546
2016-11-28T08:53:24.098Z,540
2016-11-28T08:55:51.633Z,508
2016-11-28T08:56:51.768Z,439
2016-11-28T08:57:52.005Z,432
2016-11-28T08:58:52.154Z,429
2016-11-28T08:59:52.348Z,426
2016-11-28T09:00:52.463Z,427
2016-11-28T09:01:52.577Z,424
2016-11-28T09:02:53.654Z,422
2016-11-28T09:03:53.576Z,419
2016-11-28T09:04:53.775Z,433
2016-11-28T09:05:53.783Z,428
2016-11-28T09:06:53.910Z,425
2016-11-28T09:07:54.029Z,417
2016-11-28T09:08:54.081Z,418
2016-11-28T09:09:54.200Z,416
2016-11-28T09:10:54.388Z,414
2016-11-28T09:11:54.465Z,411
2016-11-28T09:12:54.674Z,389
2016-11-28T09:13:54.851Z,387
2016-11-28T09:14:55.013Z,385
2016-11-28T09:15:55.063Z,380
2016-11-28T09:16:55.228Z,371
2016-11-28T09:17:55.439Z,362
2016-11-28T09:18:55.607Z,351
2016-11-28T09:19:55.708Z,349
2016-11-28T09:20:55.904Z,349
2016-11-28T09:21:56.124Z,345
2016-11-28T09:22:56.244Z,342
2016-11-28T09:23:56.449Z,339
2016-11-28T09:24:56.532Z,338
2016-11-28T09:25:56.734Z,333
2016-11-28T09:26:56.889Z,331
2016-11-28T09:27:56.999Z,327
2016-11-28T09:28:57.126Z,325
2016-11-28T09:29:57.174Z,324
2016-11-28T09:30:57.286Z,322
2016-11-28T09:31:57.422Z,320
2016-11-28T09:32:57.611Z,317
2016-11-28T09:33:57.688Z,315
2016-11-28T09:34:57.782Z,313
2016-11-28T09:35:58.070Z,310
2016-11-28T09:36:58.205Z,309
2016-11-28T09:37:58.400Z,306
2016-11-28T09:38:58.731Z,304
2016-11-28T09:39:58.889Z,303
2016-11-28T09:40:58.919Z,301
2016-11-28T09:41:59.057Z,299
2016-11-28T09:42:59.305Z,297
2016-11-28T09:43:59.403Z,296
2016-11-28T09:44:59.523Z,295
2016-11-28T09:45:59.684Z,294
2016-11-28T09:46:59.794Z,293
2016-11-28T09:47:59.925Z,293
2016-11-28T09:49:00.132Z,292
2016-11-28T09:50:00.288Z,290
2016-11-28T09:51:00.378Z,289
2016-11-28T09:52:00.601Z,288
2016-11-28T09:53:00.744Z,286
2016-11-28T09:54:00.791Z,287
2016-11-28T09:55:00.983Z,286
2016-11-28T09:56:01.018Z,286
2016-11-28T09:57:01.222Z,286
2016-11-28T09:58:01.377Z,286
2016-11-28T09:59:01.611Z,285
2016-11-28T10:00:01.755Z,286
2016-11-28T10:01:01.935Z,287
2016-11-28T10:02:02.121Z,286
2016-11-28T10:03:02.206Z,286
2016-11-28T10:04:02.325Z,286
2016-11-28T10:05:02.483Z,286
2016-11-28T10:06:02.694Z,285
2016-11-28T10:07:02.743Z,286
2016-11-28T10:08:02.836Z,286
2016-11-28T10:09:03.040Z,286
2016-11-28T10:10:03.180Z,286
2016-11-28T10:11:03.517Z,286
2016-11-28T10:12:03.652Z,286
2016-11-28T10:13:03.844Z,286
2016-11-28T10:14:03.950Z,286
2016-11-28T10:15:04.078Z,286
2016-11-28T10:16:04.161Z,287
2016-11-28T10:17:04.358Z,287
2016-11-28T10:18:04.540Z,286
2016-11-28T10:19:04.767Z,286
2016-11-28T10:20:04.914Z,286
2016-11-28T10:21:05.118Z,286
2016-11-28T10:22:05.249Z,286
2016-11-28T10:23:05.490Z,286
2016-11-28T10:24:05.618Z,286
2016-11-28T10:25:05.799Z,287
2016-11-28T10:26:06.010Z,286
2016-11-28T10:27:06.335Z,286
2016-11-28T10:28:06.570Z,286
2016-11-28T10:29:06.709Z,287
2016-11-28T10:30:06.862Z,286
2016-11-28T10:31:07.067Z,287
2016-11-28T10:32:07.257Z,287
2016-11-28T10:33:07.573Z,286
2016-11-28T10:34:07.765Z,286
2016-11-28T10:35:08.041Z,286
2016-11-28T10:36:08.115Z,287
2016-11-28T10:37:08.301Z,286
2016-11-28T10:38:08.438Z,286
2016-11-28T10:39:08.564Z,286
2016-11-28T10:40:08.798Z,287
2016-11-28T10:41:08.910Z,287
2016-11-28T10:42:09.067Z,282
2016-11-28T10:43:09.135Z,281
2016-11-28T10:44:09.376Z,282
2016-11-28T10:45:09.550Z,285
2016-11-28T10:46:09.634Z,284
2016-11-28T10:47:09.900Z,284
2016-11-28T10:48:10.063Z,284
2016-11-28T10:49:10.158Z,284
2016-11-28T10:50:10.300Z,284
2016-11-28T10:51:10.459Z,284
2016-11-28T10:52:10.555Z,285
2016-11-28T10:53:10.716Z,284
2016-11-28T10:54:10.852Z,284
2016-11-28T10:55:10.954Z,284
2016-11-28T10:56:11.071Z,284
2016-11-28T10:57:11.219Z,284
2016-11-28T10:58:11.339Z,284
2016-11-28T10:59:11.460Z,284
2016-11-28T11:00:11.604Z,284
2016-11-28T11:01:11.837Z,284
2016-11-28T11:02:12.043Z,284
2016-11-28T11:03:12.222Z,284
2016-11-28T11:04:12.606Z,284
2016-11-28T11:05:12.684Z,284
2016-11-28T11:06:12.929Z,284
2016-11-28T11:07:12.971Z,285
2016-11-28T11:08:13.144Z,285
2016-11-28T11:09:13.248Z,285
2016-11-28T11:10:13.365Z,284
2016-11-28T11:11:13.512Z,284
2016-11-28T11:12:13.691Z,285
2016-11-28T11:13:13.836Z,285
2016-11-28T11:14:14.010Z,285
2016-11-28T11:15:14.165Z,285
2016-11-28T11:16:14.523Z,285
2016-11-28T11:17:14.638Z,285
2016-11-28T11:18:14.809Z,285
2016-11-28T11:19:15.058Z,285
2016-11-28T11:20:15.250Z,285
2016-11-28T11:21:15.381Z,284
2016-11-28T11:22:15.480Z,284
2016-11-28T11:23:15.637Z,284
2016-11-28T11:24:15.880Z,284
2016-11-28T11:25:15.944Z,284
2016-11-28T11:26:16.114Z,284
2016-11-28T11:27:16.281Z,284
2016-11-28T11:28:16.568Z,284
2016-11-28T11:29:16.846Z,284
2016-11-28T11:30:16.949Z,285
2016-11-28T11:31:17.070Z,285
2016-11-28T11:32:17.346Z,284
2016-11-28T11:33:17.552Z,284
2016-11-28T11:34:17.692Z,285
2016-11-28T11:35:17.867Z,284
2016-11-28T11:36:17.973Z,285
2016-11-28T11:37:18.139Z,284
2016-11-28T11:38:18.406Z,284
2016-11-28T11:39:18.579Z,285
2016-11-28T11:40:18.727Z,285
2016-11-28T11:41:18.990Z,285
2016-11-28T11:42:19.149Z,285
2016-11-28T11:43:19.356Z,285
2016-11-28T11:44:19.496Z,285
2016-11-28T11:45:19.552Z,285
2016-11-28T11:46:19.742Z,285
2016-11-28T11:47:19.942Z,285
2016-11-28T11:48:20.187Z,285
2016-11-28T11:49:20.310Z,285
2016-11-28T11:50:20.572Z,285
2016-11-28T11:51:20.877Z,285
2016-11-28T11:52:20.955Z,285
2016-11-28T11:53:21.145Z,285
2016-11-28T11:54:21.312Z,285
2016-11-28T11:55:21.465Z,285
2016-11-28T11:56:21.601Z,285
2016-11-28T11:57:21.857Z,285
2016-11-28T11:58:21.975Z,285
2016-11-28T11:59:22.041Z,285
2016-11-28T12:00:22.188Z,285
2016-11-28T12:01:22.342Z,285
2016-11-28T12:02:22.443Z,285
2016-11-28T12:03:22.706Z,285
2016-11-28T12:04:22.871Z,285
2016-11-28T12:05:23.033Z,285
2016-11-28T12:06:23.194Z,285
2016-11-28T12:07:23.324Z,286
2016-11-28T12:08:23.506Z,285
2016-11-28T12:09:23.671Z,286
2016-11-28T12:10:23.861Z,285
2016-11-28T12:11:23.974Z,285
2016-11-28T12:12:24.142Z,285
2016-11-28T12:13:24.347Z,285
2016-11-28T12:14:24.374Z,285
2016-11-28T12:15:24.601Z,285
2016-11-28T12:16:24.788Z,285
2016-11-28T12:17:24.875Z,285
2016-11-28T12:18:24.994Z,285
2016-11-28T12:19:25.192Z,285
2016-11-28T12:20:25.412Z,284
2016-11-28T12:21:25.536Z,285
2016-11-28T12:22:25.620Z,285
2016-11-28T12:23:25.724Z,285
2016-11-28T12:24:25.965Z,285
2016-11-28T12:25:26.012Z,285
2016-11-28T12:26:26.245Z,285
2016-11-28T12:27:26.382Z,285
2016-11-28T12:28:26.502Z,285
2016-11-28T12:29:26.911Z,285
2016-11-28T12:30:26.915Z,286
2016-11-28T12:31:27.029Z,286
2016-11-28T12:32:27.170Z,285
2016-11-28T12:33:27.331Z,285
2016-11-28T12:34:27.445Z,285
2016-11-28T12:35:27.716Z,285
2016-11-28T12:36:27.784Z,284
2016-11-28T12:37:27.958Z,285
2016-11-28T12:38:28.122Z,284
2016-11-28T12:39:28.216Z,285
2016-11-28T12:40:28.430Z,285
2016-11-28T12:41:28.601Z,285
2016-11-28T12:42:28.737Z,284
2016-11-28T12:43:28.891Z,284
2016-11-28T12:44:29.043Z,285
2016-11-28T12:45:29.233Z,285
2016-11-28T12:46:29.432Z,285
2016-11-28T12:47:29.528Z,285
2016-11-28T12:48:29.720Z,285
2016-11-28T12:49:29.855Z,285
2016-11-28T12:50:30.126Z,285
2016-11-28T12:51:30.236Z,285
2016-11-28T12:52:30.415Z,285
2016-11-28T12:53:30.631Z,285
2016-11-28T12:54:30.692Z,285
2016-11-28T12:55:30.837Z,285
2016-11-28T12:56:30.981Z,285
2016-11-28T12:57:31.218Z,285
2016-11-28T12:58:31.366Z,285
2016-11-28T12:59:31.542Z,286
2016-11-28T13:00:31.706Z,285
2016-11-28T13:01:31.961Z,285
2016-11-28T13:02:32.058Z,285
2016-11-28T13:03:32.299Z,285
2016-11-28T13:04:32.509Z,285
2016-11-28T13:05:32.639Z,285
2016-11-28T13:06:32.829Z,285
2016-11-28T13:07:33.073Z,285
2016-11-28T13:08:33.237Z,285
2016-11-28T13:09:33.485Z,285
2016-11-28T13:10:33.606Z,285
2016-11-28T13:11:33.779Z,285
2016-11-28T13:12:33.920Z,286
2016-11-28T13:13:34.017Z,279
2016-11-28T13:14:34.167Z,284
2016-11-28T13:15:34.435Z,286
2016-11-28T13:16:34.600Z,284
2016-11-28T13:17:34.803Z,284
2016-11-28T13:18:34.952Z,283
2016-11-28T13:19:35.122Z,284
2016-11-28T13:20:35.230Z,284
2016-11-28T13:21:35.481Z,285
2016-11-28T13:22:35.640Z,285
2016-11-28T13:23:35.716Z,285
2016-11-28T13:24:35.932Z,284
2016-11-28T13:25:36.099Z,283
2016-11-28T13:26:36.175Z,285
2016-11-28T13:27:36.366Z,284
2016-11-28T13:28:36.483Z,283
2016-11-28T13:29:36.595Z,285
2016-11-28T13:30:36.664Z,285
2016-11-28T13:31:36.864Z,285
2016-11-28T13:32:37.075Z,285
2016-11-28T13:33:37.247Z,285
2016-11-28T13:34:37.376Z,285
2016-11-28T13:35:37.472Z,285
2016-11-28T13:36:37.656Z,286
2016-11-28T13:37:37.837Z,285
2016-11-28T13:38:37.986Z,285
2016-11-28T13:39:38.203Z,285
2016-11-28T13:40:38.358Z,285
2016-11-28T13:41:38.564Z,285
2016-11-28T13:42:38.720Z,285
2016-11-28T13:43:38.844Z,285
2016-11-28T13:44:38.988Z,285
2016-11-28T13:45:39.060Z,285
2016-11-28T13:46:39.147Z,286
2016-11-28T13:47:39.330Z,285
2016-11-28T13:48:39.518Z,285
2016-11-28T13:49:39.614Z,285
2016-11-28T13:50:39.686Z,285
2016-11-28T13:51:39.778Z,285
2016-11-28T13:52:39.991Z,285